Time;durP1;ratioP1;P1;durP2;ratioP2;P2;SDS_P1;SDS_P2;PMS_P1;PMS_P2;Temp;Humidity;BMP_temperature;BMP_pressure;BME280_temperature;BME280_humidity;BME280_pressure;Samples;Min_cycle;Max_cycle;Signal;HPM_P1;HPM_P2
2021/03/02 00:01:18;;;;;;;16.47;13.40;;;;;;;9.16;48.01;99405.44;8354955;28;20208;-83
2021/03/02 00:05:21;;;;;;;18.60;13.10;;;;;;;9.13;47.97;99400.31;8357353;28;20225;-83
2021/03/02 00:09:23;;;;;;;18.37;13.83;;;;;;;9.04;48.28;99400.44;8358353;28;20208;-83
2021/03/02 00:13:25;;;;;;;17.63;14.00;;;;;;;8.82;48.49;99398.19;8364938;28;20176;-81
2021/03/02 00:17:31;;;;;;;17.80;14.57;;;;;;;8.92;48.24;99401.50;8363737;28;20557;-82
2021/03/02 00:21:37;;;;;;;20.63;14.50;;;;;;;8.85;49.34;99405.03;8353865;28;20243;-82
2021/03/02 00:25:41;;;;;;;17.73;14.20;;;;;;;8.81;49.08;99401.63;8351060;28;20349;-82
2021/03/02 00:29:43;;;;;;;20.40;15.73;;;;;;;8.70;49.74;99400.94;8349435;28;20242;-82
2021/03/02 00:33:46;;;;;;;20.70;15.30;;;;;;;8.80;49.25;99411.13;8349895;28;20295;-83
2021/03/02 00:37:49;;;;;;;21.03;15.87;;;;;;;8.90;49.73;99411.84;8351616;28;20228;-82
2021/03/02 00:41:51;;;;;;;19.50;15.80;;;;;;;8.92;49.45;99411.84;8353225;28;20196;-82
2021/03/02 00:45:53;;;;;;;19.00;16.30;;;;;;;8.88;49.06;99411.00;8345840;28;20708;-83
2021/03/02 00:49:55;;;;;;;19.57;16.17;;;;;;;8.90;49.42;99416.16;8320949;28;20205;-83
2021/03/02 00:53:57;;;;;;;17.57;15.73;;;;;;;8.78;49.54;99415.47;8321481;28;20288;-82
2021/03/02 00:57:59;;;;;;;19.43;15.90;;;;;;;8.67;49.09;99417.34;8321172;28;20216;-85
2021/03/02 01:02:01;;;;;;;20.23;15.67;;;;;;;8.58;48.88;99417.44;8320494;28;20673;-82
2021/03/02 01:06:04;;;;;;;22.47;15.63;;;;;;;8.50;48.67;99417.56;8320253;28;20371;-82
2021/03/02 01:10:10;;;;;;;18.77;15.37;;;;;;;8.45;48.64;99418.50;8337532;28;20291;-85
2021/03/02 01:14:13;;;;;;;19.07;14.53;;;;;;;8.39;48.67;99411.63;8348853;28;20196;-85
2021/03/02 01:18:15;;;;;;;17.07;14.03;;;;;;;8.21;48.88;99405.84;8348695;28;20203;-84
2021/03/02 01:22:17;;;;;;;20.93;14.43;;;;;;;8.33;48.55;99404.81;8347489;28;20236;-84
2021/03/02 01:26:21;;;;;;;17.97;13.83;;;;;;;8.13;48.84;99383.56;8348396;28;20299;-84
2021/03/02 01:30:25;;;;;;;18.60;14.13;;;;;;;8.11;48.74;99396.50;8347883;28;20208;-85
2021/03/02 01:34:27;;;;;;;19.13;14.57;;;;;;;7.99;49.23;99383.72;8349574;28;20608;-85
2021/03/02 01:38:29;;;;;;;20.27;15.77;;;;;;;7.98;49.39;99394.94;8350973;28;20196;-85
2021/03/02 01:42:36;;;;;;;17.90;14.73;;;;;;;8.05;50.11;99396.53;8353900;28;20196;-86
2021/03/02 01:46:38;;;;;;;21.77;15.53;;;;;;;8.02;50.25;99392.28;8356580;28;20232;-84
2021/03/02 01:50:40;;;;;;;17.07;14.97;;;;;;;7.90;50.05;99395.00;8362854;28;20576;-85
2021/03/02 01:54:43;;;;;;;18.13;13.87;;;;;;;7.82;49.77;99392.53;8359585;28;20208;-84
2021/03/02 01:58:46;;;;;;;16.40;13.87;;;;;;;7.64;49.75;99392.69;8358907;28;20208;-84
2021/03/02 02:02:53;;;;;;;17.57;14.63;;;;;;;7.62;49.85;99392.69;8354442;28;20204;-85
2021/03/02 02:06:59;;;;;;;16.87;14.53;;;;;;;7.66;50.01;99387.53;8353720;28;20228;-84
2021/03/02 02:11:08;;;;;;;18.37;14.83;;;;;;;7.73;49.44;99392.59;8351891;28;20227;-85
2021/03/02 02:15:33;;;;;;;16.97;14.07;;;;;;;7.77;49.23;99389.13;8351995;28;20196;-85
2021/03/02 02:19:46;;;;;;;19.50;14.67;;;;;;;7.58;49.22;99370.41;8351916;28;20196;-84
2021/03/02 02:23:55;;;;;;;17.13;14.83;;;;;;;7.68;49.15;99376.31;8352906;28;20700;-84
2021/03/02 02:28:01;;;;;;;21.00;15.73;;;;;;;7.65;49.51;99381.50;8356362;28;20234;-84
2021/03/02 02:32:05;;;;;;;21.63;16.30;;;;;;;7.56;50.04;99369.56;8356538;28;20276;-84
2021/03/02 02:36:11;;;;;;;21.83;16.83;;;;;;;7.62;49.95;99382.38;8356841;28;20204;-84
2021/03/02 02:40:14;;;;;;;21.90;17.27;;;;;;;7.55;49.80;99373.00;8371614;28;20198;-84
2021/03/02 02:44:18;;;;;;;25.03;17.83;;;;;;;7.52;50.37;99377.31;8361355;28;20694;-83
2021/03/02 02:48:20;;;;;;;20.33;17.37;;;;;;;7.54;50.41;99368.72;8339625;28;20227;-82
2021/03/02 02:52:23;;;;;;;22.53;17.03;;;;;;;7.53;50.18;99376.47;8358225;28;20302;-84
2021/03/02 02:56:25;;;;;;;23.57;17.53;;;;;;;7.50;50.85;99372.22;8358274;28;20204;-83
2021/03/02 03:00:28;;;;;;;23.20;17.97;;;;;;;7.50;51.52;99372.22;8356633;28;20205;-85
2021/03/02 03:04:33;;;;;;;22.37;17.83;;;;;;;7.45;50.80;99366.22;8357173;28;20220;-84
2021/03/02 03:08:35;;;;;;;21.30;17.17;;;;;;;7.38;50.32;99372.31;8355639;28;20209;-84
2021/03/02 03:12:39;;;;;;;23.10;17.87;;;;;;;7.23;50.66;99369.00;8352184;28;20547;-85
2021/03/02 03:16:44;;;;;;;22.80;17.67;;;;;;;7.16;50.09;99375.06;8351807;28;20196;-84
2021/03/02 03:20:48;;;;;;;22.07;17.57;;;;;;;7.07;50.93;99372.56;8351226;28;20204;-84
2021/03/02 03:24:53;;;;;;;24.87;17.30;;;;;;;6.97;50.46;99382.09;8351170;28;20199;-84
2021/03/02 03:28:56;;;;;;;19.20;14.13;;;;;;;6.96;49.55;99382.09;8349815;28;20233;-84
2021/03/02 03:33:03;;;;;;;18.33;13.40;;;;;;;6.87;49.80;99379.56;8332691;28;20211;-84
2021/03/02 03:37:05;;;;;;;18.77;13.47;;;;;;;6.81;49.98;99371.00;8348998;28;20205;-84
2021/03/02 03:41:08;;;;;;;19.27;15.20;;;;;;;6.78;50.75;99372.78;8349085;28;20209;-84
2021/03/02 03:45:11;;;;;;;19.60;16.10;;;;;;;6.76;50.97;99377.06;8328546;28;20215;-84
2021/03/02 03:49:14;;;;;;;21.40;16.40;;;;;;;6.70;51.18;99377.09;8347238;28;20282;-83
2021/03/02 03:53:18;;;;;;;23.03;17.63;;;;;;;6.63;51.91;99369.44;8348302;28;20203;-83
2021/03/02 03:57:21;;;;;;;21.30;15.97;;;;;;;6.60;51.04;99379.72;8348372;28;20602;-83
2021/03/02 04:01:23;;;;;;;18.90;15.40;;;;;;;6.58;51.39;99385.75;8350368;28;20602;-83
2021/03/02 04:05:26;;;;;;;21.17;16.07;;;;;;;6.53;51.40;99387.50;8352108;28;20581;-82
2021/03/02 04:09:28;;;;;;;19.37;15.53;;;;;;;6.55;51.56;99396.06;8354988;28;20227;-82
2021/03/02 04:13:30;;;;;;;18.93;15.53;;;;;;;6.45;51.96;99387.53;8337444;28;20204;-83
2021/03/02 04:17:32;;;;;;;22.57;16.73;;;;;;;6.54;51.34;99391.78;8335292;28;20211;-84
2021/03/02 04:21:36;;;;;;;20.60;15.43;;;;;;;6.43;51.40;99394.41;8350045;28;20236;-85
2021/03/02 04:25:38;;;;;;;21.17;16.07;;;;;;;6.28;51.67;99379.03;8355580;28;20260;-85
2021/03/02 04:29:40;;;;;;;20.37;16.50;;;;;;;6.30;51.66;99393.59;8353815;28;20196;-84
2021/03/02 04:33:42;;;;;;;21.97;16.07;;;;;;;6.38;51.22;99385.88;8355143;28;20201;-84
2021/03/02 04:37:46;;;;;;;21.60;17.20;;;;;;;6.35;51.58;99397.03;8355305;28;20201;-84
2021/03/02 04:41:48;;;;;;;21.57;17.13;;;;;;;6.28;51.55;99392.75;8337384;28;20219;-83
2021/03/02 04:45:51;;;;;;;20.83;16.47;;;;;;;6.13;51.89;99395.38;8356378;28;20199;-85
2021/03/02 04:49:53;;;;;;;19.73;16.43;;;;;;;6.12;52.02;99402.25;8357798;28;20201;-83
2021/03/02 04:53:56;;;;;;;22.63;16.50;;;;;;;6.16;52.22;99397.97;8351912;28;20204;-83
2021/03/02 04:57:57;;;;;;;21.17;17.53;;;;;;;6.12;52.87;99398.84;8341153;28;20193;-85
2021/03/02 05:01:59;;;;;;;24.47;18.33;;;;;;;6.10;52.41;99398.84;8332736;28;20193;-85
2021/03/02 05:06:02;;;;;;;23.23;17.30;;;;;;;6.06;52.49;99392.00;8356226;28;20704;-85
2021/03/02 05:10:06;;;;;;;20.60;16.80;;;;;;;6.15;52.06;99394.53;8323064;28;20205;-84
2021/03/02 05:14:08;;;;;;;23.97;18.80;;;;;;;6.01;52.87;99397.13;8332760;28;20674;-85
2021/03/02 05:18:10;;;;;;;23.57;19.33;;;;;;;6.02;53.09;99401.44;8344498;28;20209;-85
2021/03/02 05:22:13;;;;;;;23.37;18.17;;;;;;;5.98;53.02;99396.31;8347134;28;20687;-85
2021/03/02 05:26:16;;;;;;;23.67;18.70;;;;;;;6.01;52.17;99391.16;8388036;28;20298;-84
2021/03/02 05:30:20;;;;;;;23.17;18.40;;;;;;;5.93;52.64;99391.13;8387790;28;20215;-84
2021/03/02 05:34:22;;;;;;;24.03;18.43;;;;;;;5.93;52.23;99398.00;8387234;28;20207;-84
2021/03/02 05:38:24;;;;;;;21.53;18.30;;;;;;;5.82;52.41;99392.88;8387926;28;20569;-84
2021/03/02 05:42:27;;;;;;;24.07;19.27;;;;;;;5.81;52.63;99391.19;8387066;28;20334;-84
2021/03/02 05:46:29;;;;;;;24.50;18.47;;;;;;;5.73;52.07;99385.19;8374030;28;20220;-84
2021/03/02 05:50:32;;;;;;;23.97;19.17;;;;;;;5.68;51.95;99392.91;8352846;28;20196;-84
2021/03/02 05:54:34;;;;;;;25.27;18.50;;;;;;;5.64;52.22;99396.34;8353453;28;20204;-85
2021/03/02 05:58:37;;;;;;;24.80;19.77;;;;;;;5.63;52.07;99395.47;8335484;28;20196;-85
2021/03/02 06:02:39;;;;;;;24.03;19.33;;;;;;;5.71;51.67;99395.47;8359567;28;20211;-84
2021/03/02 06:06:41;;;;;;;22.97;19.23;;;;;;;5.64;51.79;99399.78;8362668;28;20239;-83
2021/03/02 06:10:43;;;;;;;23.17;19.00;;;;;;;5.70;51.73;99400.63;8360755;28;20204;-83
2021/03/02 06:14:48;;;;;;;27.57;21.13;;;;;;;6.13;50.07;99395.38;8361025;28;20219;-83
2021/03/02 06:18:51;;;;;;;25.27;20.40;;;;;;;6.09;50.51;99409.13;8361264;28;20211;-84
2021/03/02 06:22:54;;;;;;;28.47;20.90;;;;;;;6.75;49.55;99399.38;8359516;28;20267;-83
2021/03/02 06:27:06;;;;;;;28.57;21.90;;;;;;;6.96;48.74;99407.84;8342273;28;20228;-83
2021/03/02 06:31:36;;;;;;;27.67;21.37;;;;;;;7.28;47.50;99417.06;8361652;28;20620;-82
2021/03/02 06:35:42;;;;;;;34.63;23.83;;;;;;;7.73;46.42;99420.97;8361096;28;20208;-83
2021/03/02 06:39:44;;;;;;;30.37;21.77;;;;;;;7.92;46.66;99421.66;8357104;28;20215;-82
2021/03/02 06:43:48;;;;;;;27.37;19.90;;;;;;;8.07;46.20;99430.06;8359133;28;20283;-84
2021/03/02 06:48:04;;;;;;;26.87;19.90;;;;;;;8.38;44.54;99426.28;8358863;28;20358;-84
2021/03/02 06:52:15;;;;;;;22.90;20.03;;;;;;;8.48;44.31;99426.19;8359490;28;20330;-81
2021/03/02 06:56:17;;;;;;;25.90;19.73;;;;;;;8.44;44.77;99412.47;8355613;28;20204;-84
2021/03/02 07:00:31;;;;;;;29.07;21.07;;;;;;;8.77;44.45;99423.22;8340064;28;20197;-84
2021/03/02 07:04:34;;;;;;;25.07;20.50;;;;;;;9.05;44.48;99431.44;8329869;28;20275;-84
2021/03/02 07:08:39;;;;;;;27.73;20.53;;;;;;;9.09;43.75;99425.34;8327657;28;20228;-84
2021/03/02 07:12:45;;;;;;;27.97;22.37;;;;;;;9.30;43.61;99431.91;8326993;28;20205;-84
2021/03/02 07:16:48;;;;;;;29.13;22.97;;;;;;;9.49;43.59;99441.97;8314350;28;20285;-84
2021/03/02 07:20:54;;;;;;;29.03;22.67;;;;;;;9.71;43.79;99437.28;8319211;28;20642;-85
2021/03/02 07:25:00;;;;;;;28.43;23.63;;;;;;;9.95;43.10;99448.94;8311186;28;20205;-85
2021/03/02 07:29:02;;;;;;;27.93;24.47;;;;;;;10.07;43.19;99448.72;8366720;28;20236;-86
2021/03/02 07:33:05;;;;;;;29.30;25.00;;;;;;;10.51;42.64;99462.56;8352084;28;20212;-86
2021/03/02 07:37:11;;;;;;;32.60;26.03;;;;;;;10.59;42.70;99459.81;8351876;28;20192;-85
2021/03/02 07:41:36;;;;;;;34.53;26.77;;;;;;;11.02;42.23;99461.47;8350333;28;20204;-85
2021/03/02 07:45:38;;;;;;;32.17;25.83;;;;;;;11.32;41.87;99475.47;8335198;28;20268;-86
2021/03/02 07:49:41;;;;;;;31.67;26.47;;;;;;;11.52;41.39;99479.38;8347000;28;20229;-84
2021/03/02 07:53:45;;;;;;;32.27;26.47;;;;;;;11.85;40.87;99484.59;8349537;28;20672;-86
2021/03/02 07:57:48;;;;;;;32.23;25.83;;;;;;;12.01;41.06;99490.28;8355103;28;20211;-86
2021/03/02 08:02:13;;;;;;;34.30;27.87;;;;;;;12.29;40.36;99493.00;8351247;28;20230;-86
2021/03/02 08:06:33;;;;;;;33.17;26.87;;;;;;;12.65;40.30;99479.88;8353098;28;20231;-84
2021/03/02 08:10:37;;;;;;;34.57;26.17;;;;;;;12.83;39.86;99478.50;8355174;28;20212;-84
2021/03/02 08:14:39;;;;;;;34.57;27.37;;;;;;;12.81;39.70;99485.50;8353705;28;20220;-84
2021/03/02 08:18:42;;;;;;;32.00;27.27;;;;;;;12.87;39.53;99488.78;8357166;28;20192;-85
2021/03/02 08:22:53;;;;;;;32.60;26.20;;;;;;;13.52;39.27;99493.75;8348436;28;20591;-84
2021/03/02 08:26:58;;;;;;;35.90;26.70;;;;;;;13.23;39.04;99487.69;8351421;28;20240;-85
2021/03/02 08:31:11;;;;;;;28.43;15.70;;;;;;;15.99;51.03;99502.09;8347749;28;20663;-83
2021/03/02 08:35:16;;;;;;;33.53;22.90;;;;;;;15.78;38.18;99504.69;8344343;28;20201;-82
2021/03/02 08:39:19;;;;;;;33.17;25.07;;;;;;;15.96;35.36;99512.69;8341931;28;20253;-82
2021/03/02 08:43:23;;;;;;;34.53;24.57;;;;;;;16.35;34.47;99504.88;8338151;28;20197;-81
2021/03/02 08:47:25;;;;;;;31.53;27.23;;;;;;;16.22;33.52;99503.72;8331774;28;20228;-82
2021/03/02 08:51:26;;;;;;;32.17;25.70;;;;;;;15.35;35.39;99490.72;8337142;28;20200;-82
2021/03/02 08:55:36;;;;;;;27.80;23.43;;;;;;;16.25;33.75;99490.53;8333232;28;20204;-82
2021/03/02 08:59:39;;;;;;;31.53;22.50;;;;;;;16.58;35.66;99496.06;8327914;28;20320;-83
2021/03/02 09:03:43;;;;;;;26.27;21.80;;;;;;;17.17;36.31;99501.25;8338238;28;20203;-83
2021/03/02 09:08:06;;;;;;;30.50;22.00;;;;;;;17.23;36.68;99502.72;8326483;28;20263;-83
2021/03/02 09:12:10;;;;;;;29.50;20.77;;;;;;;17.59;36.98;99498.34;8342872;28;20207;-83
2021/03/02 09:16:38;;;;;;;27.90;21.53;;;;;;;17.83;36.44;99494.59;8321511;28;20193;-82
2021/03/02 09:20:40;;;;;;;29.10;20.23;;;;;;;18.19;35.59;99498.94;8318131;28;20283;-82
2021/03/02 09:24:45;;;;;;;26.70;21.13;;;;;;;18.33;35.63;99496.44;8345178;28;20247;-83
2021/03/02 09:28:52;;;;;;;28.80;24.03;;;;;;;17.57;31.24;99497.59;8339425;28;20267;-83
2021/03/02 09:33:00;;;;;;;26.73;23.87;;;;;;;17.23;32.63;99487.00;8335561;28;20201;-84
2021/03/02 09:37:05;;;;;;;28.90;24.30;;;;;;;17.31;31.69;99485.75;8341421;28;20232;-83
2021/03/02 09:41:07;;;;;;;28.27;24.70;;;;;;;16.39;32.59;99497.75;8342095;28;20220;-83
2021/03/02 09:45:11;;;;;;;32.77;24.60;;;;;;;16.80;32.28;99489.84;8332993;28;20208;-84
2021/03/02 09:49:33;;;;;;;28.73;22.53;;;;;;;17.49;30.92;99483.16;8334740;28;20219;-84
2021/03/02 09:53:36;;;;;;;28.00;23.17;;;;;;;17.87;30.99;99491.75;8330111;28;20184;-84
2021/03/02 09:57:58;;;;;;;30.13;23.13;;;;;;;17.48;31.31;99484.09;8341462;28;20440;-84
2021/03/02 10:02:01;;;;;;;29.40;24.10;;;;;;;17.00;32.00;99481.97;8347739;28;20541;-82
2021/03/02 10:06:05;;;;;;;29.53;23.70;;;;;;;16.87;32.43;99477.34;8333683;28;20224;-84
2021/03/02 10:10:08;;;;;;;26.77;21.60;;;;;;;17.62;31.12;99481.63;8310966;28;20233;-83
2021/03/02 10:14:10;;;;;;;30.00;22.73;;;;;;;18.46;30.89;99479.13;8324677;28;20657;-84
2021/03/02 10:18:22;;;;;;;27.63;23.33;;;;;;;17.59;30.81;99474.78;8349644;28;20200;-84
2021/03/02 10:22:25;;;;;;;26.67;20.80;;;;;;;18.12;30.55;99470.38;8345449;28;20221;-84
2021/03/02 10:26:31;;;;;;;24.90;20.07;;;;;;;18.83;30.06;99468.47;8349216;28;20209;-85
2021/03/02 10:30:35;;;;;;;27.90;22.03;;;;;;;18.92;28.94;99473.22;8347073;28;20223;-81
2021/03/02 10:34:41;;;;;;;24.37;21.00;;;;;;;18.85;29.64;99467.47;8345325;28;20201;-81
2021/03/02 10:38:43;;;;;;;27.40;19.53;;;;;;;18.72;29.46;99469.88;8340599;28;20232;-81
2021/03/02 10:42:46;;;;;;;27.77;20.20;;;;;;;18.25;29.40;99459.28;8345263;28;20208;-82
2021/03/02 10:46:48;;;;;;;24.30;20.63;;;;;;;18.60;29.46;99465.31;8353421;28;20216;-81
2021/03/02 10:50:50;;;;;;;24.20;19.43;;;;;;;18.25;29.51;99462.75;8345076;28;20200;-83
2021/03/02 10:54:54;;;;;;;24.30;19.73;;;;;;;18.07;29.38;99461.94;8342385;28;20200;-83
2021/03/02 10:58:58;;;;;;;22.33;19.80;;;;;;;18.23;29.14;99464.59;8347990;28;20227;-81
2021/03/02 11:03:02;;;;;;;22.10;18.53;;;;;;;18.70;29.19;99465.66;8350734;28;20251;-82
2021/03/02 11:07:05;;;;;;;23.33;17.97;;;;;;;18.55;28.65;99455.03;8348528;28;20240;-81
2021/03/02 11:11:07;;;;;;;21.97;18.90;;;;;;;17.76;29.95;99452.97;8341849;28;20189;-81
2021/03/02 11:15:11;;;;;;;20.00;17.90;;;;;;;18.65;29.78;99449.28;8353795;28;20197;-81
2021/03/02 11:19:15;;;;;;;22.43;18.77;;;;;;;18.14;29.35;99438.84;8356232;28;20210;-82
2021/03/02 11:23:17;;;;;;;19.87;16.67;;;;;;;17.77;29.54;99438.09;8342052;28;20272;-82
2021/03/02 11:27:20;;;;;;;21.93;17.00;;;;;;;18.35;28.93;99429.00;8328863;28;20225;-82
2021/03/02 11:31:22;;;;;;;18.57;15.50;;;;;;;18.27;29.59;99415.47;8334629;28;20212;-84
2021/03/02 11:35:24;;;;;;;22.70;16.60;;;;;;;18.47;28.42;99417.03;8344543;28;20235;-84
2021/03/02 11:39:27;;;;;;;19.03;15.63;;;;;;;17.93;29.29;99409.38;8339340;28;20226;-84
2021/03/02 11:43:31;;;;;;;19.33;14.23;;;;;;;17.84;28.79;99404.56;8349347;28;20272;-84
2021/03/02 11:47:33;;;;;;;16.40;13.03;;;;;;;17.85;29.27;99399.28;8340303;28;20221;-83
2021/03/02 11:51:35;;;;;;;20.90;15.40;;;;;;;17.91;28.54;99390.25;8343224;28;20280;-85
2021/03/02 11:55:37;;;;;;;15.40;13.80;;;;;;;18.22;28.23;99379.03;8346554;28;20201;-84
2021/03/02 11:59:41;;;;;;;14.07;11.93;;;;;;;17.33;27.82;99381.78;8346310;28;20209;-84
2021/03/02 12:03:43;;;;;;;14.27;12.27;;;;;;;17.19;27.68;99373.75;8350275;28;20752;-84
2021/03/02 12:07:45;;;;;;;11.77;10.57;;;;;;;17.70;28.04;99369.44;8363280;28;20212;-84
2021/03/02 12:11:47;;;;;;;12.53;10.33;;;;;;;17.42;27.96;99367.41;8350247;28;20201;-84
2021/03/02 12:15:50;;;;;;;16.30;10.33;;;;;;;18.06;26.77;99368.47;8342887;28;20203;-84
2021/03/02 12:19:55;;;;;;;11.83;9.63;;;;;;;17.92;26.96;99363.13;8342442;28;20205;-83
2021/03/02 12:23:57;;;;;;;16.40;10.60;;;;;;;17.67;27.16;99351.28;8339137;28;20228;-84
2021/03/02 12:28:00;;;;;;;14.93;9.13;;;;;;;17.38;26.47;99356.22;8342592;28;20217;-84
2021/03/02 12:32:03;;;;;;;35.80;9.57;;;;;;;17.47;26.59;99362.75;8342694;28;20208;-84
2021/03/02 12:36:06;;;;;;;15.03;10.20;;;;;;;17.50;26.53;99353.91;8344517;28;20610;-84
2021/03/02 12:40:11;;;;;;;12.63;9.30;;;;;;;17.96;26.01;99351.56;8341911;28;20200;-83
2021/03/02 12:44:12;;;;;;;15.23;9.13;;;;;;;17.55;26.05;99350.13;8344926;28;20197;-84
2021/03/02 12:48:16;;;;;;;13.53;8.87;;;;;;;17.49;25.98;99344.34;8345798;28;20229;-83
2021/03/02 12:52:18;;;;;;;12.67;9.27;;;;;;;17.79;26.12;99336.69;8345633;28;20204;-84
2021/03/02 12:56:20;;;;;;;12.50;10.27;;;;;;;17.45;26.07;99333.19;8343401;28;20201;-84
2021/03/02 13:00:25;;;;;;;12.30;10.47;;;;;;;17.57;25.94;99335.19;8345875;28;20652;-84
2021/03/02 13:04:29;;;;;;;14.13;9.90;;;;;;;17.36;26.30;99331.03;8340133;28;20565;-84
2021/03/02 13:08:32;;;;;;;13.70;9.77;;;;;;;17.83;26.23;99325.13;8345325;28;20231;-83
2021/03/02 13:12:35;;;;;;;12.53;10.00;;;;;;;18.32;25.58;99324.31;8349717;28;20209;-84
2021/03/02 13:16:39;;;;;;;13.03;9.97;;;;;;;17.92;25.53;99313.34;8356306;28;20207;-84
2021/03/02 13:20:43;;;;;;;11.23;9.73;;;;;;;17.50;25.46;99319.88;8355087;28;20271;-84
2021/03/02 13:24:46;;;;;;;11.07;8.50;;;;;;;18.27;25.13;99310.59;8361111;28;20607;-82
2021/03/02 13:28:52;;;;;;;11.60;9.40;;;;;;;18.49;25.28;99315.50;8363658;28;20231;-81
2021/03/02 13:32:58;;;;;;;17.40;9.37;;;;;;;17.98;24.89;99300.75;8366359;28;20200;-82
2021/03/02 13:37:01;;;;;;;13.60;9.60;;;;;;;18.14;24.79;99306.03;8358866;28;20205;-83
2021/03/02 13:41:04;;;;;;;18.20;8.80;;;;;;;18.34;24.85;99307.53;8358182;28;20208;-83
2021/03/02 13:45:11;;;;;;;11.23;8.60;;;;;;;18.01;24.46;99298.88;8356961;28;20656;-83
2021/03/02 13:49:14;;;;;;;12.57;8.70;;;;;;;18.26;23.93;99304.50;8344083;28;20243;-82
2021/03/02 13:53:17;;;;;;;11.40;8.90;;;;;;;18.38;24.71;99297.72;8352062;28;20212;-82
2021/03/02 13:57:19;;;;;;;14.90;9.03;;;;;;;18.48;23.95;99295.44;8353451;28;20200;-82
2021/03/02 14:01:23;;;;;;;13.07;10.37;;;;;;;18.49;23.80;99298.00;8351236;28;20600;-84
2021/03/02 14:05:27;;;;;;;11.87;9.47;;;;;;;18.29;24.28;99290.38;8347109;28;20664;-85
2021/03/02 14:09:32;;;;;;;12.83;9.07;;;;;;;18.55;24.09;99302.88;8334411;28;20216;-84
2021/03/02 14:13:34;;;;;;;10.70;7.60;;;;;;;18.78;24.05;99297.28;8333371;28;20197;-84
2021/03/02 14:17:36;;;;;;;12.43;8.77;;;;;;;18.89;23.44;99287.06;8354717;28;20208;-84
2021/03/02 14:21:39;;;;;;;12.40;8.53;;;;;;;18.98;23.09;99283.03;8353284;28;20232;-84
2021/03/02 14:25:42;;;;;;;9.90;7.73;;;;;;;19.39;23.78;99283.22;8352749;28;20476;-85
2021/03/02 14:29:48;;;;;;;12.63;8.40;;;;;;;19.38;23.29;99260.53;8353856;28;20230;-85
2021/03/02 14:33:50;;;;;;;14.20;7.90;;;;;;;19.50;22.95;99272.91;8355325;28;20205;-84
2021/03/02 14:37:52;;;;;;;11.77;7.80;;;;;;;19.08;22.22;99279.78;8353806;28;20208;-84
2021/03/02 14:41:56;;;;;;;9.33;7.60;;;;;;;19.28;22.61;99270.72;8348777;28;20664;-84
2021/03/02 14:45:59;;;;;;;10.77;8.30;;;;;;;19.38;22.86;99264.94;8348970;28;20675;-84
2021/03/02 14:50:05;;;;;;;20.93;8.33;;;;;;;19.42;22.82;99263.81;8349334;28;20232;-84
2021/03/02 14:54:07;;;;;;;11.40;7.60;;;;;;;19.34;22.98;99267.75;8351002;28;20207;-84
2021/03/02 14:58:10;;;;;;;11.53;7.87;;;;;;;18.97;23.11;99262.97;8352946;28;20196;-84
2021/03/02 15:02:16;;;;;;;11.83;7.33;;;;;;;19.15;23.00;99261.88;8352812;28;20212;-84
2021/03/02 15:06:19;;;;;;;11.20;8.13;;;;;;;19.21;23.02;99256.28;8352080;28;20227;-84
2021/03/02 15:10:21;;;;;;;13.43;8.67;;;;;;;18.68;22.94;99252.38;8353000;28;20270;-84
2021/03/02 15:14:27;;;;;;;12.10;8.63;;;;;;;18.35;22.80;99255.94;8356030;28;20262;-83
2021/03/02 15:18:32;;;;;;;8.80;7.20;;;;;;;18.82;23.13;99262.09;8334445;28;20229;-84
2021/03/02 15:22:34;;;;;;;24.60;9.07;;;;;;;18.35;23.46;99256.81;8351962;28;20243;-84
2021/03/02 15:26:37;;;;;;;10.90;8.50;;;;;;;17.94;23.75;99257.28;8384683;28;20211;-84
2021/03/02 15:30:42;;;;;;;12.53;8.20;;;;;;;18.23;23.76;99257.47;8348521;28;20350;-84
2021/03/02 15:34:45;;;;;;;11.53;7.73;;;;;;;18.05;23.91;99251.47;8349509;28;20203;-84
2021/03/02 15:38:47;;;;;;;12.67;8.80;;;;;;;17.86;24.44;99253.38;8349796;28;20276;-85
2021/03/02 15:42:50;;;;;;;13.10;9.20;;;;;;;17.77;26.77;99260.78;8348097;28;20200;-84
2021/03/02 15:46:53;;;;;;;16.13;9.13;;;;;;;17.62;26.95;99258.97;8346553;28;20200;-84
2021/03/02 15:51:00;;;;;;;13.73;8.20;;;;;;;17.58;26.04;99246.97;8347758;28;20220;-84
2021/03/02 15:55:03;;;;;;;12.60;8.60;;;;;;;17.32;25.39;99258.78;8344642;28;20200;-85
2021/03/02 15:59:05;;;;;;;10.70;7.73;;;;;;;17.27;26.67;99253.81;8345717;28;20205;-83
2021/03/02 16:03:13;;;;;;;12.07;8.63;;;;;;;17.19;26.47;99245.47;8347526;28;20209;-84
2021/03/02 16:07:18;;;;;;;13.53;9.10;;;;;;;17.05;26.85;99240.97;8348713;28;20281;-84
2021/03/02 16:11:22;;;;;;;12.23;9.23;;;;;;;16.99;27.27;99244.72;8348764;28;20560;-84
2021/03/02 16:15:30;;;;;;;10.63;9.10;;;;;;;16.93;27.27;99249.44;8346356;28;20735;-84
2021/03/02 16:19:36;;;;;;;15.30;9.37;;;;;;;16.76;27.08;99243.22;8354433;28;20188;-84
2021/03/02 16:23:44;;;;;;;13.50;8.67;;;;;;;16.64;28.30;99249.09;8331177;28;20312;-84
2021/03/02 16:27:47;;;;;;;12.03;8.77;;;;;;;16.49;28.15;99226.28;8321725;28;20232;-84
2021/03/02 16:31:49;;;;;;;16.23;9.20;;;;;;;16.41;29.33;99234.47;8348730;28;20180;-85
2021/03/02 16:35:53;;;;;;;13.70;9.43;;;;;;;16.20;31.14;99241.56;8355988;28;20208;-84
2021/03/02 16:39:57;;;;;;;17.90;11.57;;;;;;;16.08;31.31;99240.38;8347479;28;20333;-84
2021/03/02 16:44:00;;;;;;;15.10;10.27;;;;;;;15.98;31.95;99244.38;8339960;28;20204;-84
2021/03/02 16:48:02;;;;;;;18.20;10.23;;;;;;;15.83;32.80;99244.13;8343018;28;20246;-84
2021/03/02 16:52:08;;;;;;;19.80;10.93;;;;;;;15.62;33.51;99248.53;8347049;28;20208;-84
2021/03/02 16:56:18;;;;;;;19.93;9.33;;;;;;;15.54;33.13;99244.59;8348172;28;20298;-83
2021/03/02 17:00:23;;;;;;;16.70;9.57;;;;;;;15.36;35.10;99249.66;8345693;28;20204;-84
2021/03/02 17:04:29;;;;;;;15.73;9.87;;;;;;;15.29;35.22;99256.09;8342721;28;20228;-82
2021/03/02 17:08:35;;;;;;;12.87;10.43;;;;;;;15.15;35.61;99266.25;8346459;28;20208;-82
2021/03/02 17:12:37;;;;;;;22.57;11.30;;;;;;;14.96;35.94;99264.41;8348669;28;20219;-82
2021/03/02 17:16:39;;;;;;;74.83;15.03;;;;;;;14.90;36.07;99277.72;8345216;28;20231;-81
2021/03/02 17:20:44;;;;;;;25.30;11.50;;;;;;;14.75;36.01;99273.13;8347119;28;20207;-81
2021/03/02 17:24:50;;;;;;;31.80;20.77;;;;;;;14.62;36.96;99284.06;8279003;28;20200;-82
2021/03/02 17:28:52;;;;;;;42.30;26.77;;;;;;;14.41;37.27;99280.53;8281806;28;20232;-82
2021/03/02 17:32:55;;;;;;;62.70;36.00;;;;;;;14.28;37.69;99280.13;8285983;28;20197;-81
2021/03/02 17:36:58;;;;;;;58.20;31.77;;;;;;;14.14;37.78;99284.16;8295044;28;20216;-83
2021/03/02 17:41:01;;;;;;;32.43;18.70;;;;;;;14.00;38.10;99290.75;8288183;28;20217;-83
2021/03/02 17:45:05;;;;;;;22.23;15.33;;;;;;;13.96;38.24;99298.75;8285925;28;20581;-82
2021/03/02 17:49:07;;;;;;;23.93;16.93;;;;;;;13.80;38.29;99293.22;8274694;28;20573;-82
2021/03/02 17:53:13;;;;;;;24.37;18.30;;;;;;;13.74;39.40;99307.31;8278985;28;20205;-82
2021/03/02 17:57:16;;;;;;;27.87;17.10;;;;;;;13.60;39.03;99304.38;8277637;28;20642;-82
2021/03/02 18:01:18;;;;;;;22.20;16.70;;;;;;;13.46;39.65;99300.50;8275091;28;20214;-82
2021/03/02 18:05:21;;;;;;;22.63;17.17;;;;;;;13.29;39.97;99288.03;8274680;28;20252;-83
2021/03/02 18:09:23;;;;;;;26.17;17.40;;;;;;;13.24;39.53;99279.53;8275966;28;20232;-83
2021/03/02 18:13:27;;;;;;;26.67;19.07;;;;;;;13.21;40.09;99290.06;8275334;28;20213;-82
2021/03/02 18:17:29;;;;;;;29.17;18.43;;;;;;;13.02;40.45;99292.44;8273204;28;20202;-80
2021/03/02 18:21:31;;;;;;;22.20;16.03;;;;;;;13.02;39.77;99297.63;8284857;28;20224;-80
2021/03/02 18:25:33;;;;;;;37.30;27.90;;;;;;;12.87;40.33;99295.50;8337564;28;20201;-80
2021/03/02 18:29:36;;;;;;;60.63;45.77;;;;;;;12.85;40.68;99290.38;8335111;28;20246;-80
2021/03/02 18:33:38;;;;;;;35.90;27.60;;;;;;;12.69;40.70;99294.38;8326036;28;20225;-81
2021/03/02 18:37:40;;;;;;;29.10;25.03;;;;;;;12.56;40.81;99283.50;8327172;28;20221;-83
2021/03/02 18:41:43;;;;;;;38.83;27.10;;;;;;;12.45;41.55;99293.38;8332786;28;20209;-85
2021/03/02 18:45:46;;;;;;;47.87;32.87;;;;;;;12.42;41.58;99289.13;8330336;28;20197;-83
2021/03/02 18:49:49;;;;;;;25.07;19.87;;;;;;;12.35;42.12;99292.81;8339836;28;20237;-84